Portada
METAR-TAF:

METAR-TAF

Aeroports :

Lumberton Municipal Airport

Lumberton, Carolina del Nord, Estats Units d'Amèrica

latitud: 34-36-26N, longitud: 079-03-36W, altitud: 38 m

METAR: manca

Hora: 10:25 (15:25 UTC)

Pronòstic

L'informe es va fer fa 4 hores i 5 minuts, a les 11:20 UTC
Pronòstic vàlid del 15 a les 12 UTC al 16 a les 12 UTC
Vent 9 kt del Nord
Visibilitat: 9.7 km
Cel cobert a una alçada de 500 ft
pluja, boirina
A partir de les 16 a les 0000 UTC
Vent 12 kt del Nord/Nord-Est amb ràfegues de 20 kt
Visibilitat: 8.0 km
Cel cobert a una alçada de 800 ft
pluja, boirina
A partir de les 16 a les 0900 UTC
Vent 15 kt del Nord/Nord-Est amb ràfegues de 24 kt
Visibilitat: 9.7 km
Cel cobert a una alçada de 800 ft
xàfecs de pluja, boirina, xàfecs en les proximitats

TAF: KLBT 151120Z 1512/1612 01009KT 6SM -RA BR OVC005 FM160000 02012G20KT 5SM -RA BR OVC008 FM160900 02015G24KT 6SM -SHRA BR VCSH OVC008 AMD NOT SKED

Observacions i pronòstics meteorològics de més de 4000 aeroports (METAR i TAF).

Les estacions disponibles són els punts grocs i vermells al mapa.

Posi el ratolí al punt desitjat per veure el nom de l'estació.

Feu clic per veure les observacions i els pronòstics meteorològics.

Per canviar el mapa: feu clic els botons verds amb una creu de color negre per apropar; al botó verd amb un guió per allunyar la imatge; o en les fletxes verdes per a mapes adjacents.


METAR-TAF: